sensor_id;sensor_type;location;lat;lon;timestamp;P1;durP1;ratioP1;P2;durP2;ratioP2
22922;SDS011;11627;51.322;22.816;2023-12-20T00:02:10;22.67;;;10.25;;
22922;SDS011;11627;51.322;22.816;2023-12-20T00:04:37;21.50;;;9.68;;
22922;SDS011;11627;51.322;22.816;2023-12-20T00:07:04;20.13;;;10.65;;
22922;SDS011;11627;51.322;22.816;2023-12-20T00:09:31;21.17;;;9.73;;
22922;SDS011;11627;51.322;22.816;2023-12-20T00:11:58;24.52;;;11.10;;
22922;SDS011;11627;51.322;22.816;2023-12-20T00:14:25;24.63;;;10.35;;
22922;SDS011;11627;51.322;22.816;2023-12-20T00:16:52;22.73;;;10.32;;
22922;SDS011;11627;51.322;22.816;2023-12-20T00:19:19;25.42;;;11.80;;
22922;SDS011;11627;51.322;22.816;2023-12-20T00:21:46;25.77;;;11.23;;
22922;SDS011;11627;51.322;22.816;2023-12-20T00:24:13;21.55;;;10.55;;
22922;SDS011;11627;51.322;22.816;2023-12-20T00:26:40;27.15;;;11.25;;
22922;SDS011;11627;51.322;22.816;2023-12-20T00:29:07;23.38;;;10.65;;
22922;SDS011;11627;51.322;22.816;2023-12-20T00:31:34;22.50;;;9.73;;
22922;SDS011;11627;51.322;22.816;2023-12-20T00:34:02;25.83;;;9.85;;
22922;SDS011;11627;51.322;22.816;2023-12-20T00:36:29;25.42;;;12.40;;
22922;SDS011;11627;51.322;22.816;2023-12-20T00:38:57;21.55;;;10.27;;
22922;SDS011;11627;51.322;22.816;2023-12-20T00:41:24;23.05;;;11.50;;
22922;SDS011;11627;51.322;22.816;2023-12-20T00:43:51;23.10;;;10.43;;
22922;SDS011;11627;51.322;22.816;2023-12-20T00:46:18;21.40;;;10.88;;
22922;SDS011;11627;51.322;22.816;2023-12-20T00:48:45;23.67;;;10.43;;
22922;SDS011;11627;51.322;22.816;2023-12-20T00:51:12;18.45;;;9.27;;
22922;SDS011;11627;51.322;22.816;2023-12-20T00:53:39;23.65;;;9.75;;
22922;SDS011;11627;51.322;22.816;2023-12-20T00:56:06;25.10;;;11.48;;
22922;SDS011;11627;51.322;22.816;2023-12-20T00:58:33;23.35;;;11.15;;
22922;SDS011;11627;51.322;22.816;2023-12-20T01:01:01;26.08;;;11.80;;
22922;SDS011;11627;51.322;22.816;2023-12-20T01:03:29;22.60;;;11.57;;
22922;SDS011;11627;51.322;22.816;2023-12-20T01:05:56;18.17;;;9.48;;
22922;SDS011;11627;51.322;22.816;2023-12-20T01:08:23;23.65;;;11.05;;
22922;SDS011;11627;51.322;22.816;2023-12-20T01:10:50;28.13;;;12.05;;
22922;SDS011;11627;51.322;22.816;2023-12-20T01:13:17;25.25;;;11.27;;
22922;SDS011;11627;51.322;22.816;2023-12-20T01:15:44;23.48;;;11.38;;
22922;SDS011;11627;51.322;22.816;2023-12-20T01:18:11;20.38;;;9.85;;
22922;SDS011;11627;51.322;22.816;2023-12-20T01:20:38;26.95;;;11.57;;
22922;SDS011;11627;51.322;22.816;2023-12-20T01:23:05;26.00;;;11.23;;
22922;SDS011;11627;51.322;22.816;2023-12-20T01:25:31;20.73;;;10.30;;
22922;SDS011;11627;51.322;22.816;2023-12-20T01:27:58;21.88;;;11.07;;
22922;SDS011;11627;51.322;22.816;2023-12-20T01:30:25;24.58;;;11.95;;
22922;SDS011;11627;51.322;22.816;2023-12-20T01:32:52;23.98;;;11.48;;
22922;SDS011;11627;51.322;22.816;2023-12-20T01:35:20;25.45;;;10.98;;
22922;SDS011;11627;51.322;22.816;2023-12-20T01:37:48;21.20;;;9.95;;
22922;SDS011;11627;51.322;22.816;2023-12-20T01:40:13;17.65;;;8.82;;
22922;SDS011;11627;51.322;22.816;2023-12-20T01:42:41;23.35;;;11.25;;
22922;SDS011;11627;51.322;22.816;2023-12-20T01:45:08;14.85;;;7.78;;
22922;SDS011;11627;51.322;22.816;2023-12-20T01:47:35;22.77;;;11.05;;
22922;SDS011;11627;51.322;22.816;2023-12-20T01:50:02;23.95;;;10.57;;
22922;SDS011;11627;51.322;22.816;2023-12-20T01:52:34;19.17;;;9.10;;
22922;SDS011;11627;51.322;22.816;2023-12-20T01:55:02;26.50;;;11.48;;
22922;SDS011;11627;51.322;22.816;2023-12-20T01:57:37;20.67;;;7.72;;
22922;SDS011;11627;51.322;22.816;2023-12-20T02:00:04;16.98;;;8.65;;
22922;SDS011;11627;51.322;22.816;2023-12-20T02:02:32;19.50;;;9.93;;
22922;SDS011;11627;51.322;22.816;2023-12-20T02:05:00;22.35;;;11.10;;
22922;SDS011;11627;51.322;22.816;2023-12-20T02:07:29;22.13;;;11.73;;
22922;SDS011;11627;51.322;22.816;2023-12-20T02:09:57;25.17;;;11.10;;
22922;SDS011;11627;51.322;22.816;2023-12-20T02:12:24;22.95;;;10.77;;
22922;SDS011;11627;51.322;22.816;2023-12-20T02:14:51;15.10;;;6.97;;
22922;SDS011;11627;51.322;22.816;2023-12-20T02:17:18;17.92;;;7.78;;
22922;SDS011;11627;51.322;22.816;2023-12-20T02:19:45;20.95;;;10.05;;
22922;SDS011;11627;51.322;22.816;2023-12-20T02:22:12;23.92;;;11.52;;
22922;SDS011;11627;51.322;22.816;2023-12-20T02:24:40;19.85;;;10.27;;
22922;SDS011;11627;51.322;22.816;2023-12-20T02:27:08;28.30;;;11.82;;
22922;SDS011;11627;51.322;22.816;2023-12-20T02:29:35;20.23;;;10.57;;
22922;SDS011;11627;51.322;22.816;2023-12-20T02:32:02;21.65;;;9.75;;
22922;SDS011;11627;51.322;22.816;2023-12-20T02:34:29;21.35;;;10.75;;
22922;SDS011;11627;51.322;22.816;2023-12-20T02:36:56;23.30;;;11.20;;
22922;SDS011;11627;51.322;22.816;2023-12-20T02:39:23;12.82;;;6.22;;
22922;SDS011;11627;51.322;22.816;2023-12-20T02:41:50;18.73;;;9.40;;
22922;SDS011;11627;51.322;22.816;2023-12-20T02:44:17;20.13;;;9.90;;
22922;SDS011;11627;51.322;22.816;2023-12-20T02:46:44;23.15;;;9.98;;
22922;SDS011;11627;51.322;22.816;2023-12-20T02:49:11;18.02;;;8.02;;
22922;SDS011;11627;51.322;22.816;2023-12-20T02:51:38;20.48;;;9.57;;
22922;SDS011;11627;51.322;22.816;2023-12-20T02:54:05;17.85;;;8.70;;
22922;SDS011;11627;51.322;22.816;2023-12-20T02:56:35;18.48;;;9.05;;
22922;SDS011;11627;51.322;22.816;2023-12-20T02:59:02;21.58;;;8.73;;
22922;SDS011;11627;51.322;22.816;2023-12-20T03:01:32;17.55;;;9.23;;
22922;SDS011;11627;51.322;22.816;2023-12-20T03:03:59;16.00;;;7.97;;
22922;SDS011;11627;51.322;22.816;2023-12-20T03:06:26;21.42;;;10.25;;
22922;SDS011;11627;51.322;22.816;2023-12-20T03:08:54;20.80;;;10.68;;
22922;SDS011;11627;51.322;22.816;2023-12-20T03:11:21;23.02;;;11.52;;
22922;SDS011;11627;51.322;22.816;2023-12-20T03:13:48;18.23;;;8.63;;
22922;SDS011;11627;51.322;22.816;2023-12-20T03:16:14;26.85;;;11.63;;
22922;SDS011;11627;51.322;22.816;2023-12-20T03:18:43;24.35;;;10.18;;
22922;SDS011;11627;51.322;22.816;2023-12-20T03:21:10;21.08;;;9.82;;
22922;SDS011;11627;51.322;22.816;2023-12-20T03:23:37;16.60;;;8.57;;
22922;SDS011;11627;51.322;22.816;2023-12-20T03:26:08;22.38;;;10.90;;
22922;SDS011;11627;51.322;22.816;2023-12-20T03:28:38;18.33;;;9.50;;
22922;SDS011;11627;51.322;22.816;2023-12-20T03:31:05;20.17;;;9.38;;
22922;SDS011;11627;51.322;22.816;2023-12-20T03:33:32;18.48;;;10.23;;
22922;SDS011;11627;51.322;22.816;2023-12-20T03:35:59;21.08;;;10.65;;
22922;SDS011;11627;51.322;22.816;2023-12-20T03:38:25;19.90;;;10.48;;
22922;SDS011;11627;51.322;22.816;2023-12-20T03:40:52;20.80;;;10.10;;
22922;SDS011;11627;51.322;22.816;2023-12-20T03:43:19;20.70;;;10.30;;
22922;SDS011;11627;51.322;22.816;2023-12-20T03:45:47;22.30;;;10.43;;
22922;SDS011;11627;51.322;22.816;2023-12-20T03:48:14;27.23;;;11.65;;
22922;SDS011;11627;51.322;22.816;2023-12-20T03:50:41;26.80;;;12.27;;
22922;SDS011;11627;51.322;22.816;2023-12-20T03:53:08;25.80;;;11.90;;
22922;SDS011;11627;51.322;22.816;2023-12-20T03:55:33;25.55;;;11.75;;
22922;SDS011;11627;51.322;22.816;2023-12-20T03:58:02;22.48;;;11.45;;
22922;SDS011;11627;51.322;22.816;2023-12-20T04:00:29;19.15;;;9.93;;
22922;SDS011;11627;51.322;22.816;2023-12-20T04:02:56;22.58;;;12.02;;
22922;SDS011;11627;51.322;22.816;2023-12-20T04:05:22;26.67;;;13.10;;
22922;SDS011;11627;51.322;22.816;2023-12-20T04:07:49;27.42;;;12.65;;
22922;SDS011;11627;51.322;22.816;2023-12-20T04:10:15;25.92;;;11.40;;
22922;SDS011;11627;51.322;22.816;2023-12-20T04:12:42;22.13;;;11.10;;
22922;SDS011;11627;51.322;22.816;2023-12-20T04:15:10;24.83;;;12.15;;
22922;SDS011;11627;51.322;22.816;2023-12-20T04:17:38;22.73;;;11.25;;
22922;SDS011;11627;51.322;22.816;2023-12-20T04:20:05;26.33;;;11.18;;
22922;SDS011;11627;51.322;22.816;2023-12-20T04:22:32;28.73;;;12.27;;
22922;SDS011;11627;51.322;22.816;2023-12-20T04:24:59;21.75;;;9.98;;
22922;SDS011;11627;51.322;22.816;2023-12-20T04:27:26;20.20;;;10.30;;
22922;SDS011;11627;51.322;22.816;2023-12-20T04:29:53;26.27;;;12.25;;
22922;SDS011;11627;51.322;22.816;2023-12-20T04:32:20;15.73;;;8.85;;
22922;SDS011;11627;51.322;22.816;2023-12-20T04:34:47;25.90;;;10.85;;
22922;SDS011;11627;51.322;22.816;2023-12-20T04:37:14;24.15;;;12.57;;
22922;SDS011;11627;51.322;22.816;2023-12-20T04:39:41;22.92;;;9.27;;
22922;SDS011;11627;51.322;22.816;2023-12-20T04:42:09;22.40;;;10.48;;
22922;SDS011;11627;51.322;22.816;2023-12-20T04:44:36;26.83;;;14.25;;
22922;SDS011;11627;51.322;22.816;2023-12-20T04:47:03;19.55;;;11.18;;
22922;SDS011;11627;51.322;22.816;2023-12-20T04:49:30;18.92;;;11.25;;
22922;SDS011;11627;51.322;22.816;2023-12-20T04:51:57;22.08;;;12.60;;
22922;SDS011;11627;51.322;22.816;2023-12-20T04:54:23;25.27;;;12.32;;
22922;SDS011;11627;51.322;22.816;2023-12-20T04:56:50;20.75;;;10.40;;
22922;SDS011;11627;51.322;22.816;2023-12-20T04:59:15;26.85;;;12.30;;
22922;SDS011;11627;51.322;22.816;2023-12-20T05:01:43;19.23;;;9.48;;
22922;SDS011;11627;51.322;22.816;2023-12-20T05:04:10;30.90;;;13.50;;
22922;SDS011;11627;51.322;22.816;2023-12-20T05:06:36;25.73;;;11.57;;
22922;SDS011;11627;51.322;22.816;2023-12-20T05:09:04;25.17;;;11.88;;
22922;SDS011;11627;51.322;22.816;2023-12-20T05:11:31;28.80;;;12.02;;
22922;SDS011;11627;51.322;22.816;2023-12-20T05:13:58;25.30;;;11.57;;
22922;SDS011;11627;51.322;22.816;2023-12-20T05:16:25;27.42;;;13.68;;
22922;SDS011;11627;51.322;22.816;2023-12-20T05:18:52;27.02;;;12.40;;
22922;SDS011;11627;51.322;22.816;2023-12-20T05:21:19;26.95;;;15.07;;
22922;SDS011;11627;51.322;22.816;2023-12-20T05:23:46;32.65;;;14.95;;
22922;SDS011;11627;51.322;22.816;2023-12-20T05:26:13;34.03;;;15.98;;
22922;SDS011;11627;51.322;22.816;2023-12-20T05:28:41;35.83;;;16.10;;
22922;SDS011;11627;51.322;22.816;2023-12-20T05:31:08;32.70;;;14.82;;
22922;SDS011;11627;51.322;22.816;2023-12-20T05:33:35;33.63;;;15.63;;
22922;SDS011;11627;51.322;22.816;2023-12-20T05:36:02;29.95;;;14.70;;
22922;SDS011;11627;51.322;22.816;2023-12-20T05:38:29;34.22;;;12.73;;
22922;SDS011;11627;51.322;22.816;2023-12-20T05:40:56;30.95;;;15.50;;
22922;SDS011;11627;51.322;22.816;2023-12-20T05:43:24;24.25;;;12.00;;
22922;SDS011;11627;51.322;22.816;2023-12-20T05:45:51;26.33;;;13.05;;
22922;SDS011;11627;51.322;22.816;2023-12-20T05:48:18;27.38;;;13.05;;
22922;SDS011;11627;51.322;22.816;2023-12-20T05:50:45;27.23;;;12.15;;
22922;SDS011;11627;51.322;22.816;2023-12-20T05:53:12;27.77;;;14.18;;
22922;SDS011;11627;51.322;22.816;2023-12-20T05:55:39;28.88;;;14.07;;
22922;SDS011;11627;51.322;22.816;2023-12-20T05:58:06;31.55;;;16.05;;
22922;SDS011;11627;51.322;22.816;2023-12-20T06:00:32;29.15;;;13.73;;
22922;SDS011;11627;51.322;22.816;2023-12-20T06:02:59;28.98;;;14.75;;
22922;SDS011;11627;51.322;22.816;2023-12-20T06:05:27;26.40;;;12.07;;
22922;SDS011;11627;51.322;22.816;2023-12-20T06:08:01;34.40;;;16.35;;
22922;SDS011;11627;51.322;22.816;2023-12-20T06:10:28;28.08;;;14.75;;
22922;SDS011;11627;51.322;22.816;2023-12-20T06:12:55;29.95;;;13.48;;
22922;SDS011;11627;51.322;22.816;2023-12-20T06:15:23;35.55;;;17.75;;
22922;SDS011;11627;51.322;22.816;2023-12-20T06:17:50;29.70;;;15.85;;
22922;SDS011;11627;51.322;22.816;2023-12-20T06:20:16;32.97;;;16.05;;
22922;SDS011;11627;51.322;22.816;2023-12-20T06:22:43;30.35;;;14.95;;
22922;SDS011;11627;51.322;22.816;2023-12-20T06:25:09;29.75;;;15.52;;
22922;SDS011;11627;51.322;22.816;2023-12-20T06:27:36;30.95;;;14.93;;
22922;SDS011;11627;51.322;22.816;2023-12-20T06:30:03;23.40;;;11.63;;
22922;SDS011;11627;51.322;22.816;2023-12-20T06:32:30;32.15;;;15.80;;
22922;SDS011;11627;51.322;22.816;2023-12-20T06:34:58;27.88;;;14.07;;
22922;SDS011;11627;51.322;22.816;2023-12-20T06:37:25;32.08;;;15.70;;
22922;SDS011;11627;51.322;22.816;2023-12-20T06:39:52;27.23;;;13.02;;
22922;SDS011;11627;51.322;22.816;2023-12-20T06:42:19;36.47;;;17.98;;
22922;SDS011;11627;51.322;22.816;2023-12-20T06:44:46;39.10;;;17.55;;
22922;SDS011;11627;51.322;22.816;2023-12-20T06:47:13;37.15;;;17.05;;
22922;SDS011;11627;51.322;22.816;2023-12-20T06:49:40;33.83;;;15.80;;
22922;SDS011;11627;51.322;22.816;2023-12-20T06:52:07;37.42;;;18.58;;
22922;SDS011;11627;51.322;22.816;2023-12-20T06:54:34;33.50;;;17.55;;
22922;SDS011;11627;51.322;22.816;2023-12-20T06:57:02;31.85;;;16.73;;
22922;SDS011;11627;51.322;22.816;2023-12-20T06:59:30;38.50;;;17.73;;
22922;SDS011;11627;51.322;22.816;2023-12-20T07:01:57;34.60;;;17.40;;
22922;SDS011;11627;51.322;22.816;2023-12-20T07:04:24;31.73;;;15.80;;
22922;SDS011;11627;51.322;22.816;2023-12-20T07:06:51;35.67;;;18.75;;
22922;SDS011;11627;51.322;22.816;2023-12-20T07:09:20;33.05;;;16.90;;
22922;SDS011;11627;51.322;22.816;2023-12-20T07:11:45;37.65;;;19.10;;
22922;SDS011;11627;51.322;22.816;2023-12-20T07:14:13;29.75;;;15.77;;
22922;SDS011;11627;51.322;22.816;2023-12-20T07:16:39;32.72;;;16.77;;
22922;SDS011;11627;51.322;22.816;2023-12-20T07:19:05;34.13;;;17.73;;
22922;SDS011;11627;51.322;22.816;2023-12-20T07:21:31;35.72;;;17.35;;
22922;SDS011;11627;51.322;22.816;2023-12-20T07:23:57;33.83;;;15.57;;
22922;SDS011;11627;51.322;22.816;2023-12-20T07:26:23;37.15;;;19.45;;
22922;SDS011;11627;51.322;22.816;2023-12-20T07:28:50;38.42;;;18.27;;
22922;SDS011;11627;51.322;22.816;2023-12-20T07:31:16;36.45;;;17.48;;
22922;SDS011;11627;51.322;22.816;2023-12-20T07:33:43;37.33;;;17.45;;
22922;SDS011;11627;51.322;22.816;2023-12-20T07:36:09;38.13;;;19.15;;
22922;SDS011;11627;51.322;22.816;2023-12-20T07:38:36;37.35;;;18.13;;
22922;SDS011;11627;51.322;22.816;2023-12-20T07:41:02;40.00;;;18.90;;
22922;SDS011;11627;51.322;22.816;2023-12-20T07:43:29;36.03;;;17.88;;
22922;SDS011;11627;51.322;22.816;2023-12-20T07:45:56;36.00;;;18.23;;
22922;SDS011;11627;51.322;22.816;2023-12-20T07:48:23;37.92;;;18.70;;
22922;SDS011;11627;51.322;22.816;2023-12-20T07:50:50;32.38;;;16.30;;
22922;SDS011;11627;51.322;22.816;2023-12-20T07:53:19;26.10;;;12.82;;
22922;SDS011;11627;51.322;22.816;2023-12-20T07:55:46;41.17;;;20.90;;
22922;SDS011;11627;51.322;22.816;2023-12-20T07:58:14;35.33;;;18.33;;
22922;SDS011;11627;51.322;22.816;2023-12-20T08:00:42;40.22;;;19.15;;
22922;SDS011;11627;51.322;22.816;2023-12-20T08:03:10;40.42;;;18.48;;
22922;SDS011;11627;51.322;22.816;2023-12-20T08:05:38;38.70;;;18.48;;
22922;SDS011;11627;51.322;22.816;2023-12-20T08:08:07;33.28;;;15.13;;
22922;SDS011;11627;51.322;22.816;2023-12-20T08:10:35;32.80;;;16.83;;
22922;SDS011;11627;51.322;22.816;2023-12-20T08:13:02;35.08;;;16.33;;
22922;SDS011;11627;51.322;22.816;2023-12-20T08:15:29;38.20;;;16.48;;
22922;SDS011;11627;51.322;22.816;2023-12-20T08:17:56;42.88;;;19.75;;
22922;SDS011;11627;51.322;22.816;2023-12-20T08:20:23;43.58;;;19.98;;
22922;SDS011;11627;51.322;22.816;2023-12-20T08:22:50;44.38;;;16.90;;
22922;SDS011;11627;51.322;22.816;2023-12-20T08:25:16;38.95;;;19.42;;
22922;SDS011;11627;51.322;22.816;2023-12-20T08:27:44;39.53;;;20.33;;
22922;SDS011;11627;51.322;22.816;2023-12-20T08:30:10;33.60;;;16.30;;
22922;SDS011;11627;51.322;22.816;2023-12-20T08:32:37;40.60;;;19.67;;
22922;SDS011;11627;51.322;22.816;2023-12-20T08:35:05;35.47;;;18.60;;
22922;SDS011;11627;51.322;22.816;2023-12-20T08:37:32;43.83;;;19.10;;
22922;SDS011;11627;51.322;22.816;2023-12-20T08:39:59;37.85;;;18.58;;
22922;SDS011;11627;51.322;22.816;2023-12-20T08:42:26;37.30;;;17.42;;
22922;SDS011;11627;51.322;22.816;2023-12-20T08:44:57;28.58;;;14.73;;
22922;SDS011;11627;51.322;22.816;2023-12-20T08:47:24;38.80;;;16.70;;
22922;SDS011;11627;51.322;22.816;2023-12-20T08:49:51;28.83;;;15.15;;
22922;SDS011;11627;51.322;22.816;2023-12-20T08:52:22;30.88;;;14.52;;
22922;SDS011;11627;51.322;22.816;2023-12-20T08:54:50;33.00;;;15.57;;
22922;SDS011;11627;51.322;22.816;2023-12-20T08:57:22;25.15;;;13.05;;
22922;SDS011;11627;51.322;22.816;2023-12-20T08:59:54;31.58;;;16.48;;
22922;SDS011;11627;51.322;22.816;2023-12-20T09:02:22;38.00;;;17.10;;
22922;SDS011;11627;51.322;22.816;2023-12-20T09:04:49;22.88;;;12.38;;
22922;SDS011;11627;51.322;22.816;2023-12-20T09:07:25;36.70;;;16.20;;
22922;SDS011;11627;51.322;22.816;2023-12-20T09:09:54;30.35;;;14.85;;
22922;SDS011;11627;51.322;22.816;2023-12-20T09:12:21;29.45;;;13.35;;
22922;SDS011;11627;51.322;22.816;2023-12-20T09:14:48;32.47;;;15.48;;
22922;SDS011;11627;51.322;22.816;2023-12-20T09:17:16;28.60;;;13.88;;
22922;SDS011;11627;51.322;22.816;2023-12-20T09:19:45;22.98;;;12.07;;
22922;SDS011;11627;51.322;22.816;2023-12-20T09:22:12;30.73;;;14.88;;
22922;SDS011;11627;51.322;22.816;2023-12-20T09:24:39;30.70;;;14.30;;
22922;SDS011;11627;51.322;22.816;2023-12-20T09:27:06;40.50;;;17.55;;
22922;SDS011;11627;51.322;22.816;2023-12-20T09:29:34;32.25;;;15.95;;
22922;SDS011;11627;51.322;22.816;2023-12-20T09:32:01;29.50;;;14.43;;
22922;SDS011;11627;51.322;22.816;2023-12-20T09:34:29;37.90;;;18.05;;
22922;SDS011;11627;51.322;22.816;2023-12-20T09:36:56;40.28;;;19.30;;
22922;SDS011;11627;51.322;22.816;2023-12-20T09:39:22;38.92;;;20.10;;
22922;SDS011;11627;51.322;22.816;2023-12-20T09:42:03;44.33;;;19.58;;
22922;SDS011;11627;51.322;22.816;2023-12-20T09:44:31;37.10;;;18.42;;
22922;SDS011;11627;51.322;22.816;2023-12-20T09:47:01;31.42;;;15.27;;
22922;SDS011;11627;51.322;22.816;2023-12-20T09:49:31;43.08;;;19.63;;
22922;SDS011;11627;51.322;22.816;2023-12-20T09:51:59;33.80;;;15.77;;
22922;SDS011;11627;51.322;22.816;2023-12-20T09:54:29;35.92;;;17.85;;
22922;SDS011;11627;51.322;22.816;2023-12-20T09:56:56;28.75;;;14.93;;
22922;SDS011;11627;51.322;22.816;2023-12-20T09:59:23;33.90;;;15.43;;
22922;SDS011;11627;51.322;22.816;2023-12-20T10:01:50;37.72;;;17.48;;
22922;SDS011;11627;51.322;22.816;2023-12-20T10:04:22;31.80;;;16.42;;
22922;SDS011;11627;51.322;22.816;2023-12-20T10:06:49;32.08;;;14.93;;
22922;SDS011;11627;51.322;22.816;2023-12-20T10:09:16;31.45;;;15.85;;
22922;SDS011;11627;51.322;22.816;2023-12-20T10:11:44;33.75;;;16.67;;
22922;SDS011;11627;51.322;22.816;2023-12-20T10:14:11;34.25;;;16.65;;
22922;SDS011;11627;51.322;22.816;2023-12-20T10:16:38;33.28;;;16.67;;
22922;SDS011;11627;51.322;22.816;2023-12-20T10:19:05;32.10;;;16.35;;
22922;SDS011;11627;51.322;22.816;2023-12-20T10:21:32;31.80;;;15.10;;
22922;SDS011;11627;51.322;22.816;2023-12-20T10:24:00;25.08;;;13.15;;
22922;SDS011;11627;51.322;22.816;2023-12-20T10:26:27;27.77;;;15.02;;
22922;SDS011;11627;51.322;22.816;2023-12-20T10:28:56;28.58;;;13.25;;
22922;SDS011;11627;51.322;22.816;2023-12-20T10:31:34;33.97;;;16.38;;
22922;SDS011;11627;51.322;22.816;2023-12-20T10:34:02;31.27;;;15.20;;
22922;SDS011;11627;51.322;22.816;2023-12-20T10:36:32;33.30;;;15.38;;
22922;SDS011;11627;51.322;22.816;2023-12-20T10:39:00;29.83;;;14.55;;
22922;SDS011;11627;51.322;22.816;2023-12-20T10:41:33;34.20;;;16.67;;
22922;SDS011;11627;51.322;22.816;2023-12-20T10:44:02;36.78;;;17.67;;
22922;SDS011;11627;51.322;22.816;2023-12-20T10:46:31;31.92;;;15.27;;
22922;SDS011;11627;51.322;22.816;2023-12-20T10:49:02;29.30;;;15.27;;
22922;SDS011;11627;51.322;22.816;2023-12-20T10:51:31;36.00;;;16.70;;
22922;SDS011;11627;51.322;22.816;2023-12-20T10:54:04;28.33;;;14.15;;
22922;SDS011;11627;51.322;22.816;2023-12-20T10:56:32;33.38;;;16.38;;
22922;SDS011;11627;51.322;22.816;2023-12-20T10:59:02;31.10;;;16.90;;
22922;SDS011;11627;51.322;22.816;2023-12-20T11:01:32;34.85;;;18.02;;
22922;SDS011;11627;51.322;22.816;2023-12-20T11:04:01;45.97;;;20.73;;
22922;SDS011;11627;51.322;22.816;2023-12-20T11:06:49;36.20;;;16.05;;
22922;SDS011;11627;51.322;22.816;2023-12-20T11:09:38;31.52;;;14.00;;
22922;SDS011;11627;51.322;22.816;2023-12-20T11:12:16;35.42;;;16.70;;
22922;SDS011;11627;51.322;22.816;2023-12-20T11:14:52;37.00;;;17.05;;
22922;SDS011;11627;51.322;22.816;2023-12-20T11:17:23;35.15;;;16.67;;
22922;SDS011;11627;51.322;22.816;2023-12-20T11:22:24;42.95;;;19.42;;
22922;SDS011;11627;51.322;22.816;2023-12-20T11:24:52;42.60;;;17.52;;
22922;SDS011;11627;51.322;22.816;2023-12-20T11:27:20;34.78;;;16.13;;
22922;SDS011;11627;51.322;22.816;2023-12-20T11:29:54;31.63;;;14.80;;
22922;SDS011;11627;51.322;22.816;2023-12-20T11:37:38;20.50;;;10.18;;
22922;SDS011;11627;51.322;22.816;2023-12-20T11:42:54;32.22;;;15.85;;
22922;SDS011;11627;51.322;22.816;2023-12-20T11:45:22;28.25;;;12.13;;
22922;SDS011;11627;51.322;22.816;2023-12-20T11:47:51;19.05;;;9.50;;
22922;SDS011;11627;51.322;22.816;2023-12-20T11:50:21;18.95;;;8.75;;
22922;SDS011;11627;51.322;22.816;2023-12-20T11:52:49;16.10;;;8.32;;
22922;SDS011;11627;51.322;22.816;2023-12-20T11:55:17;7.55;;;3.05;;
22922;SDS011;11627;51.322;22.816;2023-12-20T11:57:44;3.20;;;1.67;;
22922;SDS011;11627;51.322;22.816;2023-12-20T12:00:10;34.10;;;14.30;;
22922;SDS011;11627;51.322;22.816;2023-12-20T12:02:38;29.17;;;14.52;;
22922;SDS011;11627;51.322;22.816;2023-12-20T12:05:05;18.58;;;9.57;;
22922;SDS011;11627;51.322;22.816;2023-12-20T12:07:33;12.18;;;4.65;;
22922;SDS011;11627;51.322;22.816;2023-12-20T12:10:01;7.35;;;3.47;;
22922;SDS011;11627;51.322;22.816;2023-12-20T12:12:29;3.90;;;2.50;;
22922;SDS011;11627;51.322;22.816;2023-12-20T12:14:57;11.18;;;4.93;;
22922;SDS011;11627;51.322;22.816;2023-12-20T12:17:24;8.10;;;3.78;;
22922;SDS011;11627;51.322;22.816;2023-12-20T12:19:51;8.60;;;4.18;;
22922;SDS011;11627;51.322;22.816;2023-12-20T12:22:31;7.38;;;3.60;;
22922;SDS011;11627;51.322;22.816;2023-12-20T12:24:59;11.80;;;4.32;;
22922;SDS011;11627;51.322;22.816;2023-12-20T12:27:35;6.43;;;3.20;;
22922;SDS011;11627;51.322;22.816;2023-12-20T12:30:03;3.15;;;1.90;;
22922;SDS011;11627;51.322;22.816;2023-12-20T12:32:33;4.95;;;1.63;;
22922;SDS011;11627;51.322;22.816;2023-12-20T12:35:00;4.05;;;2.30;;
22922;SDS011;11627;51.322;22.816;2023-12-20T12:37:29;4.68;;;1.40;;
22922;SDS011;11627;51.322;22.816;2023-12-20T12:39:56;3.00;;;1.85;;
22922;SDS011;11627;51.322;22.816;2023-12-20T12:42:24;3.28;;;1.83;;
22922;SDS011;11627;51.322;22.816;2023-12-20T12:44:55;3.50;;;1.73;;
22922;SDS011;11627;51.322;22.816;2023-12-20T12:47:22;9.98;;;3.30;;
22922;SDS011;11627;51.322;22.816;2023-12-20T12:49:49;6.22;;;2.67;;
22922;SDS011;11627;51.322;22.816;2023-12-20T12:52:19;8.38;;;3.30;;
22922;SDS011;11627;51.322;22.816;2023-12-20T12:54:46;2.42;;;1.42;;
22922;SDS011;11627;51.322;22.816;2023-12-20T12:57:13;2.72;;;1.42;;
22922;SDS011;11627;51.322;22.816;2023-12-20T12:59:42;5.63;;;1.55;;
22922;SDS011;11627;51.322;22.816;2023-12-20T13:02:12;5.35;;;2.30;;
22922;SDS011;11627;51.322;22.816;2023-12-20T13:04:40;3.38;;;1.20;;
22922;SDS011;11627;51.322;22.816;2023-12-20T13:07:10;4.40;;;2.05;;
22922;SDS011;11627;51.322;22.816;2023-12-20T13:09:38;6.10;;;1.63;;
22922;SDS011;11627;51.322;22.816;2023-12-20T13:12:07;10.68;;;2.10;;
22922;SDS011;11627;51.322;22.816;2023-12-20T13:14:35;5.30;;;1.80;;
22922;SDS011;11627;51.322;22.816;2023-12-20T13:17:07;2.15;;;1.05;;
22922;SDS011;11627;51.322;22.816;2023-12-20T13:19:37;1.55;;;0.82;;
22922;SDS011;11627;51.322;22.816;2023-12-20T13:22:06;16.50;;;3.72;;
22922;SDS011;11627;51.322;22.816;2023-12-20T13:24:32;1.80;;;1.02;;
22922;SDS011;11627;51.322;22.816;2023-12-20T13:27:01;1.50;;;0.40;;
22922;SDS011;11627;51.322;22.816;2023-12-20T13:29:28;1.98;;;0.90;;
22922;SDS011;11627;51.322;22.816;2023-12-20T13:31:55;0.55;;;0.40;;
22922;SDS011;11627;51.322;22.816;2023-12-20T13:34:22;1.67;;;0.65;;
22922;SDS011;11627;51.322;22.816;2023-12-20T13:36:49;3.00;;;0.93;;
22922;SDS011;11627;51.322;22.816;2023-12-20T13:39:17;2.88;;;1.75;;
22922;SDS011;11627;51.322;22.816;2023-12-20T13:41:44;0.63;;;0.63;;
22922;SDS011;11627;51.322;22.816;2023-12-20T13:44:11;2.58;;;1.30;;
22922;SDS011;11627;51.322;22.816;2023-12-20T13:46:39;2.10;;;1.10;;
22922;SDS011;11627;51.322;22.816;2023-12-20T13:49:07;2.22;;;1.33;;
22922;SDS011;11627;51.322;22.816;2023-12-20T13:51:34;3.55;;;1.25;;
22922;SDS011;11627;51.322;22.816;2023-12-20T13:54:01;3.30;;;1.60;;
22922;SDS011;11627;51.322;22.816;2023-12-20T13:56:28;2.47;;;1.30;;
22922;SDS011;11627;51.322;22.816;2023-12-20T13:58:55;3.15;;;2.25;;
22922;SDS011;11627;51.322;22.816;2023-12-20T14:01:23;2.03;;;1.17;;
22922;SDS011;11627;51.322;22.816;2023-12-20T14:03:50;2.92;;;1.50;;
22922;SDS011;11627;51.322;22.816;2023-12-20T14:06:19;2.58;;;1.50;;
22922;SDS011;11627;51.322;22.816;2023-12-20T14:08:46;3.83;;;1.85;;
22922;SDS011;11627;51.322;22.816;2023-12-20T14:11:14;3.25;;;2.13;;
22922;SDS011;11627;51.322;22.816;2023-12-20T14:13:41;1.60;;;1.05;;
22922;SDS011;11627;51.322;22.816;2023-12-20T14:16:10;4.18;;;2.42;;
22922;SDS011;11627;51.322;22.816;2023-12-20T14:18:37;15.85;;;3.60;;
22922;SDS011;11627;51.322;22.816;2023-12-20T14:21:04;1.85;;;1.17;;
22922;SDS011;11627;51.322;22.816;2023-12-20T14:23:32;1.23;;;0.60;;
22922;SDS011;11627;51.322;22.816;2023-12-20T14:26:00;1.65;;;0.88;;
22922;SDS011;11627;51.322;22.816;2023-12-20T14:28:28;1.48;;;0.98;;